createdAt,value
2022-10-14T00:00:22.582Z,47.86
2022-10-14T00:01:22.597Z,55.27
2022-10-14T00:02:22.543Z,43.18
2022-10-14T00:03:22.505Z,44.15
2022-10-14T00:04:22.534Z,48.18
2022-10-14T00:05:22.542Z,43.99
2022-10-14T00:06:22.469Z,43.51
2022-10-14T00:07:22.948Z,44.15
2022-10-14T00:08:22.448Z,44.79
2022-10-14T00:09:22.478Z,44.15
2022-10-14T00:10:22.432Z,43.83
2022-10-14T00:11:22.421Z,45.12
2022-10-14T00:12:22.473Z,60.26
2022-10-14T00:13:22.483Z,46.08
2022-10-14T00:14:31.246Z,52.69
2022-10-14T00:15:22.382Z,50.76
2022-10-14T00:16:22.769Z,53.66
2022-10-14T00:17:22.830Z,45.44
2022-10-14T00:18:22.367Z,42.70
2022-10-14T00:19:22.354Z,43.83
2022-10-14T00:20:22.338Z,45.76
2022-10-14T00:21:22.333Z,67.68
2022-10-14T00:22:22.329Z,42.06
2022-10-14T00:23:22.296Z,45.44
2022-10-14T00:24:22.744Z,59.62
2022-10-14T00:25:22.320Z,52.53
2022-10-14T00:26:22.287Z,49.15
2022-10-14T00:27:22.587Z,45.92
2022-10-14T00:28:22.301Z,52.53
2022-10-14T00:29:22.603Z,49.47
2022-10-14T00:30:22.338Z,62.84
2022-10-14T00:31:24.535Z,46.25
2022-10-14T00:32:22.534Z,48.66
2022-10-14T00:33:22.722Z,43.83
2022-10-14T00:34:22.206Z,44.31
2022-10-14T00:35:22.198Z,59.94
2022-10-14T00:36:22.225Z,60.75
2022-10-14T00:37:22.494Z,46.57
2022-10-14T00:38:22.128Z,46.41
2022-10-14T00:39:26.268Z,49.47
2022-10-14T00:40:22.236Z,45.76
2022-10-14T00:41:22.174Z,44.47
2022-10-14T00:42:22.616Z,49.15
2022-10-14T00:43:22.120Z,46.73
2022-10-14T00:44:22.060Z,48.82
2022-10-14T00:45:22.099Z,43.51
2022-10-14T00:46:22.471Z,55.27
2022-10-14T00:47:22.473Z,45.12
2022-10-14T00:48:22.325Z,50.60
2022-10-14T00:49:22.110Z,43.18
2022-10-14T00:50:22.187Z,43.51
2022-10-14T00:51:22.023Z,46.08
2022-10-14T00:52:21.982Z,46.25
2022-10-14T00:53:21.978Z,49.79
2022-10-14T00:54:22.559Z,44.47
2022-10-14T00:55:21.994Z,44.31
2022-10-14T00:56:21.954Z,42.86
2022-10-14T00:57:22.331Z,45.44
2022-10-14T00:58:21.972Z,42.38
2022-10-14T00:59:21.954Z,44.31
2022-10-14T01:00:21.971Z,48.50
2022-10-14T01:01:21.893Z,46.73
2022-10-14T01:02:21.891Z,47.05
2022-10-14T01:03:21.856Z,44.15
2022-10-14T01:04:23.730Z,43.51
2022-10-14T01:05:21.879Z,43.34
2022-10-14T01:06:21.900Z,45.76
2022-10-14T01:07:22.086Z,47.70
2022-10-14T01:08:21.813Z,41.25
2022-10-14T01:09:22.059Z,45.60
2022-10-14T01:10:21.938Z,53.17
2022-10-14T01:11:21.775Z,43.02
2022-10-14T01:12:29.202Z,43.99
2022-10-14T01:13:21.840Z,44.47
2022-10-14T01:14:21.804Z,44.63
2022-10-14T01:15:21.796Z,43.02
2022-10-14T01:16:21.784Z,44.31
2022-10-14T01:17:21.729Z,63.16
2022-10-14T01:18:21.734Z,42.70
2022-10-14T01:19:21.715Z,55.11
2022-10-14T01:20:21.998Z,44.79
2022-10-14T01:21:21.695Z,47.53
2022-10-14T01:22:22.517Z,41.09
2022-10-14T01:23:21.728Z,45.60
2022-10-14T01:24:21.659Z,44.31
2022-10-14T01:25:21.721Z,45.28
2022-10-14T01:26:22.512Z,41.57
2022-10-14T01:27:21.654Z,42.22
2022-10-14T01:28:21.715Z,42.70
2022-10-14T01:29:21.699Z,43.51
2022-10-14T01:30:22.360Z,42.86
2022-10-14T01:31:21.826Z,41.73
2022-10-14T01:32:22.187Z,47.37
2022-10-14T01:33:21.582Z,44.79
2022-10-14T01:34:22.373Z,51.24
2022-10-14T01:35:21.593Z,43.83
2022-10-14T01:36:21.564Z,59.14
2022-10-14T01:37:21.613Z,44.31
2022-10-14T01:38:21.579Z,42.38
2022-10-14T01:39:21.529Z,44.47
2022-10-14T01:40:21.638Z,45.12
2022-10-14T01:41:21.519Z,43.83
2022-10-14T01:42:21.878Z,53.82
2022-10-14T01:43:21.484Z,41.25
2022-10-14T01:44:21.505Z,44.47
2022-10-14T01:45:21.634Z,44.63
2022-10-14T01:46:21.441Z,52.21
2022-10-14T01:47:21.431Z,47.21
2022-10-14T01:48:21.409Z,46.57
2022-10-14T01:49:21.465Z,48.18
2022-10-14T01:50:21.404Z,53.17
2022-10-14T01:51:21.400Z,43.99
2022-10-14T01:52:21.639Z,42.22
2022-10-14T01:53:21.429Z,41.73
2022-10-14T01:54:21.422Z,44.47
2022-10-14T01:55:21.395Z,43.99
2022-10-14T01:56:21.360Z,44.31
2022-10-14T01:57:21.605Z,46.41
2022-10-14T01:58:21.306Z,45.44
2022-10-14T01:59:21.288Z,49.15
2022-10-14T02:00:25.476Z,52.53
2022-10-14T02:01:21.374Z,41.89
2022-10-14T02:02:21.617Z,43.67
2022-10-14T02:03:21.263Z,42.06
2022-10-14T02:04:21.403Z,41.89
2022-10-14T02:05:22.007Z,44.47
2022-10-14T02:06:21.483Z,43.34
2022-10-14T02:07:21.204Z,59.78
2022-10-14T02:08:21.239Z,43.18
2022-10-14T02:09:23.227Z,44.31
2022-10-14T02:10:21.168Z,42.22
2022-10-14T02:11:21.236Z,42.06
2022-10-14T02:12:21.388Z,47.21
2022-10-14T02:13:21.142Z,41.73
2022-10-14T02:14:21.213Z,54.30
2022-10-14T02:15:21.792Z,42.22
2022-10-14T02:16:21.388Z,43.02
2022-10-14T02:17:21.146Z,42.22
2022-10-14T02:18:21.141Z,44.15
2022-10-14T02:19:21.144Z,44.15
2022-10-14T02:20:21.371Z,41.57
2022-10-14T02:21:21.069Z,44.31
2022-10-14T02:22:21.302Z,48.82
2022-10-14T02:23:21.055Z,55.75
2022-10-14T02:24:21.090Z,44.47
2022-10-14T02:25:21.093Z,44.47
2022-10-14T02:26:21.014Z,53.17
2022-10-14T02:27:21.103Z,60.75
2022-10-14T02:28:21.077Z,58.97
2022-10-14T02:29:20.967Z,46.08
2022-10-14T02:30:21.374Z,50.27
2022-10-14T02:31:20.959Z,55.59
2022-10-14T02:32:21.255Z,43.18
2022-10-14T02:33:21.087Z,43.99
2022-10-14T02:34:21.014Z,44.31
2022-10-14T02:35:20.981Z,44.31
2022-10-14T02:36:20.948Z,50.27
2022-10-14T02:37:20.932Z,47.05
2022-10-14T02:38:20.932Z,52.21
2022-10-14T02:39:20.870Z,43.51
2022-10-14T02:40:20.975Z,63.00
2022-10-14T02:41:20.920Z,51.08
2022-10-14T02:42:21.155Z,51.08
2022-10-14T02:43:20.817Z,45.92
2022-10-14T02:44:20.860Z,51.88
2022-10-14T02:45:21.135Z,47.53
2022-10-14T02:46:20.812Z,45.28
2022-10-14T02:47:20.809Z,50.27
2022-10-14T02:48:21.053Z,43.99
2022-10-14T02:49:20.767Z,55.75
2022-10-14T02:50:20.761Z,51.56
2022-10-14T02:51:20.783Z,48.18
2022-10-14T02:52:21.405Z,58.81
2022-10-14T02:53:21.501Z,51.08
2022-10-14T02:54:20.743Z,54.30
2022-10-14T02:55:20.785Z,41.57
2022-10-14T02:56:20.868Z,52.53
2022-10-14T02:57:20.835Z,46.73
2022-10-14T02:58:20.681Z,45.76
2022-10-14T02:59:20.944Z,58.33
2022-10-14T03:00:20.671Z,57.69
2022-10-14T03:01:20.756Z,62.52
2022-10-14T03:02:20.785Z,50.60
2022-10-14T03:03:20.664Z,54.62
2022-10-14T03:04:20.641Z,52.21
2022-10-14T03:05:20.647Z,56.88
2022-10-14T03:06:20.650Z,65.58
2022-10-14T03:07:20.881Z,53.17
2022-10-14T03:08:20.565Z,53.33
2022-10-14T03:09:20.616Z,73.64
2022-10-14T03:10:20.564Z,50.11
2022-10-14T03:11:20.567Z,47.37
2022-10-14T03:12:20.897Z,52.21
2022-10-14T03:13:20.502Z,50.27
2022-10-14T03:14:20.535Z,53.50
2022-10-14T03:15:20.551Z,45.60
2022-10-14T03:16:20.557Z,45.76
2022-10-14T03:17:20.822Z,49.63
2022-10-14T03:18:20.511Z,42.70
2022-10-14T03:19:20.497Z,56.88
2022-10-14T03:20:21.344Z,54.30
2022-10-14T03:21:20.467Z,47.86
2022-10-14T03:22:20.754Z,48.50
2022-10-14T03:23:20.431Z,47.70
2022-10-14T03:24:20.403Z,48.82
2022-10-14T03:25:20.406Z,47.86
2022-10-14T03:26:20.413Z,52.37
2022-10-14T03:27:20.402Z,50.27
2022-10-14T03:28:20.489Z,54.14
2022-10-14T03:29:20.457Z,50.60
2022-10-14T03:30:20.369Z,45.28
2022-10-14T03:31:24.618Z,51.40
2022-10-14T03:32:20.651Z,59.78
2022-10-14T03:33:20.683Z,49.79
2022-10-14T03:34:20.323Z,72.19
2022-10-14T03:35:20.380Z,67.19
2022-10-14T03:36:20.281Z,54.79
2022-10-14T03:37:20.629Z,57.85
2022-10-14T03:38:20.391Z,65.10
2022-10-14T03:39:20.303Z,56.88
2022-10-14T03:40:20.309Z,64.29
2022-10-14T03:41:20.220Z,48.02
2022-10-14T03:42:20.744Z,68.64
2022-10-14T03:43:20.251Z,55.11
2022-10-14T03:44:20.311Z,55.59
2022-10-14T03:45:20.210Z,58.01
2022-10-14T03:46:20.231Z,60.42
2022-10-14T03:47:20.444Z,50.92
2022-10-14T03:48:20.183Z,60.91
2022-10-14T03:49:20.186Z,48.82
2022-10-14T03:50:20.178Z,48.18
2022-10-14T03:51:20.163Z,58.65
2022-10-14T03:52:20.508Z,57.04
2022-10-14T03:53:20.090Z,61.55
2022-10-14T03:54:20.103Z,64.45
2022-10-14T03:55:20.435Z,49.63
2022-10-14T03:56:20.086Z,62.36
2022-10-14T03:57:20.189Z,52.69
2022-10-14T03:58:20.112Z,60.10
2022-10-14T03:59:24.483Z,47.37
2022-10-14T04:00:20.097Z,47.37
2022-10-14T04:01:20.126Z,50.27
2022-10-14T04:02:20.422Z,55.75
2022-10-14T04:03:20.865Z,48.98
2022-10-14T04:04:20.049Z,52.85
2022-10-14T04:05:19.993Z,60.75
2022-10-14T04:06:20.049Z,53.98
2022-10-14T04:07:19.944Z,59.62
2022-10-14T04:08:19.954Z,58.49
2022-10-14T04:09:20.045Z,48.82
2022-10-14T04:10:19.911Z,50.92
2022-10-14T04:11:20.232Z,65.26
2022-10-14T04:12:20.519Z,52.69
2022-10-14T04:13:20.010Z,55.11
2022-10-14T04:14:19.964Z,60.91
2022-10-14T04:15:19.984Z,63.97
2022-10-14T04:16:19.875Z,57.36
2022-10-14T04:17:19.846Z,61.07
2022-10-14T04:18:19.913Z,60.91
2022-10-14T04:19:19.898Z,53.66
2022-10-14T04:20:21.803Z,61.55
2022-10-14T04:21:19.814Z,51.72
2022-10-14T04:22:20.174Z,53.33
2022-10-14T04:23:19.783Z,65.26
2022-10-14T04:24:19.832Z,54.30
2022-10-14T04:25:19.878Z,55.91
2022-10-14T04:26:19.744Z,61.23
2022-10-14T04:27:19.777Z,48.02
2022-10-14T04:28:19.786Z,53.33
2022-10-14T04:29:19.784Z,57.36
2022-10-14T04:30:19.781Z,60.26
2022-10-14T04:31:19.772Z,64.45
2022-10-14T04:32:20.924Z,62.36
2022-10-14T04:33:19.743Z,60.10
2022-10-14T04:34:19.732Z,66.87
2022-10-14T04:35:19.761Z,56.72
2022-10-14T04:36:19.723Z,64.13
2022-10-14T04:37:19.693Z,55.27
2022-10-14T04:38:19.654Z,60.42
2022-10-14T04:39:19.671Z,71.54
2022-10-14T04:40:19.665Z,60.75
2022-10-14T04:41:19.648Z,57.04
2022-10-14T04:42:19.987Z,48.82
2022-10-14T04:43:19.582Z,54.95
2022-10-14T04:44:19.598Z,58.49
2022-10-14T04:45:19.626Z,61.87
2022-10-14T04:46:19.587Z,68.48
2022-10-14T04:47:19.562Z,54.95
2022-10-14T04:48:19.552Z,57.36
2022-10-14T04:49:28.160Z,55.43
2022-10-14T04:50:19.511Z,58.33
2022-10-14T04:51:19.542Z,62.84
2022-10-14T04:52:19.958Z,65.58
2022-10-14T04:53:22.121Z,63.65
2022-10-14T04:54:19.459Z,58.01
2022-10-14T04:55:19.510Z,65.74
2022-10-14T04:56:19.467Z,64.78
2022-10-14T04:57:19.468Z,59.94
2022-10-14T04:58:19.460Z,61.07
2022-10-14T04:59:19.406Z,59.62
2022-10-14T05:00:19.443Z,61.23
2022-10-14T05:01:19.463Z,61.55
2022-10-14T05:02:19.862Z,61.39
2022-10-14T05:03:19.345Z,66.55
2022-10-14T05:04:19.453Z,53.98
2022-10-14T05:05:19.382Z,59.62
2022-10-14T05:06:19.373Z,64.78
2022-10-14T05:07:19.370Z,57.04
2022-10-14T05:08:19.318Z,69.13
2022-10-14T05:09:19.305Z,65.10
2022-10-14T05:10:19.338Z,60.91
2022-10-14T05:11:19.627Z,69.29
2022-10-14T05:12:19.703Z,63.81
2022-10-14T05:13:19.274Z,68.16
2022-10-14T05:14:19.341Z,65.58
2022-10-14T05:15:19.287Z,61.87
2022-10-14T05:16:19.597Z,66.23
2022-10-14T05:17:19.317Z,63.33
2022-10-14T05:18:19.228Z,65.42
2022-10-14T05:19:19.258Z,64.94
2022-10-14T05:20:19.170Z,60.91
2022-10-14T05:21:19.181Z,62.68
2022-10-14T05:22:28.287Z,56.88
2022-10-14T05:23:19.178Z,59.46
2022-10-14T05:24:19.297Z,62.20
2022-10-14T05:25:19.152Z,64.45
2022-10-14T05:26:19.473Z,66.39
2022-10-14T05:27:19.140Z,61.39
2022-10-14T05:28:19.370Z,59.78
2022-10-14T05:29:19.409Z,62.04
2022-10-14T05:30:19.188Z,61.23
2022-10-14T05:31:19.077Z,61.23
2022-10-14T05:32:19.464Z,68.32
2022-10-14T05:33:19.045Z,59.30
2022-10-14T05:34:19.018Z,62.04
2022-10-14T05:35:29.235Z,60.10
2022-10-14T05:36:19.024Z,64.45
2022-10-14T05:37:18.996Z,67.19
2022-10-14T05:38:19.033Z,64.13
2022-10-14T05:39:19.109Z,63.16
2022-10-14T05:40:19.036Z,66.71
2022-10-14T05:41:18.959Z,59.94
2022-10-14T05:42:19.167Z,57.85
2022-10-14T05:43:18.955Z,62.84
2022-10-14T05:44:18.904Z,58.17
2022-10-14T05:45:19.132Z,63.97
2022-10-14T05:46:18.962Z,61.87
2022-10-14T05:47:18.899Z,68.00
2022-10-14T05:48:19.014Z,63.97
2022-10-14T05:49:18.913Z,60.42
2022-10-14T05:50:18.844Z,72.19
2022-10-14T05:51:21.346Z,61.55
2022-10-14T05:52:19.182Z,68.80
2022-10-14T05:53:18.837Z,72.99
2022-10-14T05:54:18.837Z,57.04
2022-10-14T05:55:18.829Z,62.52
2022-10-14T05:56:18.795Z,65.74
2022-10-14T05:57:18.855Z,64.78
2022-10-14T05:58:18.773Z,62.04
2022-10-14T05:59:18.816Z,60.10
2022-10-14T06:00:23.320Z,67.19
2022-10-14T06:01:18.797Z,67.35
2022-10-14T06:02:19.117Z,62.04
2022-10-14T06:03:18.743Z,70.74
2022-10-14T06:04:18.908Z,59.78
2022-10-14T06:05:19.048Z,66.39
2022-10-14T06:06:18.774Z,68.64
2022-10-14T06:07:18.693Z,62.52
2022-10-14T06:08:18.644Z,63.00
2022-10-14T06:09:18.664Z,61.71
2022-10-14T06:10:18.650Z,66.06
2022-10-14T06:11:18.644Z,65.42
2022-10-14T06:12:18.827Z,60.59
2022-10-14T06:13:18.656Z,63.81
2022-10-14T06:14:18.603Z,67.19
2022-10-14T06:15:18.563Z,68.64
2022-10-14T06:16:18.576Z,81.21
2022-10-14T06:17:18.566Z,69.13
2022-10-14T06:18:18.524Z,68.48
2022-10-14T06:19:18.513Z,69.77
2022-10-14T06:20:18.511Z,63.00
2022-10-14T06:21:18.512Z,67.84
2022-10-14T06:22:18.525Z,61.39
2022-10-14T06:23:18.472Z,63.33
2022-10-14T06:24:18.466Z,60.75
2022-10-14T06:25:18.464Z,66.23
2022-10-14T06:26:18.443Z,59.94
2022-10-14T06:27:18.478Z,60.91
2022-10-14T06:28:18.508Z,71.70
2022-10-14T06:29:18.408Z,59.62
2022-10-14T06:30:18.398Z,66.06
2022-10-14T06:31:18.397Z,61.55
2022-10-14T06:32:18.503Z,60.42
2022-10-14T06:33:18.385Z,63.00
2022-10-14T06:34:18.369Z,65.90
2022-10-14T06:35:18.885Z,65.42
2022-10-14T06:36:18.720Z,62.52
2022-10-14T06:37:18.410Z,61.23
2022-10-14T06:38:19.106Z,63.49
2022-10-14T06:39:28.851Z,61.23
2022-10-14T06:40:18.376Z,73.64
2022-10-14T06:41:18.524Z,68.48
2022-10-14T06:42:32.469Z,66.23
2022-10-14T06:43:18.571Z,64.78
2022-10-14T06:44:18.307Z,60.10
2022-10-14T06:45:18.759Z,74.93
2022-10-14T06:46:18.422Z,65.90
2022-10-14T06:47:18.255Z,59.30
2022-10-14T06:48:18.343Z,65.58
2022-10-14T06:49:18.279Z,57.85
2022-10-14T06:50:18.264Z,61.87
2022-10-14T06:51:18.272Z,68.32
2022-10-14T06:52:18.272Z,64.13
2022-10-14T06:53:19.333Z,57.20
2022-10-14T06:54:20.056Z,61.55
2022-10-14T06:55:18.490Z,58.17
2022-10-14T06:56:18.463Z,66.06
2022-10-14T06:57:18.233Z,66.39
2022-10-14T06:58:18.319Z,60.91
2022-10-14T06:59:18.280Z,59.94
2022-10-14T07:00:18.142Z,62.52
2022-10-14T07:01:22.516Z,56.72
2022-10-14T07:02:18.121Z,58.97
2022-10-14T07:03:49.048Z,61.71
2022-10-14T07:04:18.192Z,61.55
2022-10-14T07:05:18.264Z,67.35
2022-10-14T07:06:18.329Z,60.42
2022-10-14T07:07:29.382Z,55.91
2022-10-14T07:08:18.088Z,60.91
2022-10-14T07:09:18.069Z,68.96
2022-10-14T07:10:18.046Z,61.23
2022-10-14T07:11:18.147Z,66.06
2022-10-14T07:12:18.071Z,58.81
2022-10-14T07:13:18.125Z,61.39
2022-10-14T07:14:18.002Z,60.91
2022-10-14T07:15:18.036Z,62.36
2022-10-14T07:16:18.204Z,61.39
2022-10-14T07:17:17.933Z,60.91
2022-10-14T07:18:17.928Z,62.04
2022-10-14T07:19:18.492Z,60.91
2022-10-14T07:20:18.194Z,72.83
2022-10-14T07:21:17.926Z,60.10
2022-10-14T07:22:41.545Z,65.26
2022-10-14T07:23:18.042Z,59.62
2022-10-14T07:24:18.427Z,61.55
2022-10-14T07:25:19.417Z,68.64
2022-10-14T07:26:42.918Z,69.13
2022-10-14T07:27:17.862Z,63.97
2022-10-14T07:28:17.862Z,72.99
2022-10-14T07:29:17.816Z,62.04
2022-10-14T07:30:18.023Z,63.65
2022-10-14T07:31:18.012Z,64.29
2022-10-14T07:32:17.799Z,63.49
2022-10-14T07:33:17.851Z,68.16
2022-10-14T07:34:17.804Z,59.78
2022-10-14T07:35:18.914Z,67.35
2022-10-14T07:36:22.517Z,63.49
2022-10-14T07:38:16.455Z,66.87
2022-10-14T07:38:21.521Z,74.77
2022-10-14T07:39:21.923Z,63.00
2022-10-14T07:40:21.536Z,70.74
2022-10-14T07:41:21.493Z,73.96
2022-10-14T07:42:21.623Z,56.24
2022-10-14T07:43:21.697Z,60.91
2022-10-14T07:44:24.924Z,59.94
2022-10-14T07:45:21.447Z,63.81
2022-10-14T07:46:21.960Z,64.94
2022-10-14T07:47:22.283Z,67.19
2022-10-14T07:48:27.422Z,62.20
2022-10-14T07:49:21.445Z,60.59
2022-10-14T07:50:21.406Z,59.94
2022-10-14T07:51:21.355Z,60.26
2022-10-14T07:52:21.416Z,57.69
2022-10-14T07:53:21.440Z,60.59
2022-10-14T07:54:21.314Z,64.29
2022-10-14T07:55:21.515Z,58.01
2022-10-14T07:56:21.282Z,59.14
2022-10-14T07:57:21.599Z,60.26
2022-10-14T07:58:21.300Z,63.33
2022-10-14T07:59:21.933Z,62.36
2022-10-14T08:00:21.562Z,63.16
2022-10-14T08:01:21.271Z,65.90
2022-10-14T08:02:21.210Z,60.75
2022-10-14T08:03:21.173Z,60.75
2022-10-14T08:04:21.267Z,72.19
2022-10-14T08:05:38.539Z,56.72
2022-10-14T08:06:21.207Z,61.23
2022-10-14T08:07:21.386Z,59.78
2022-10-14T08:08:21.145Z,62.84
2022-10-14T08:09:24.011Z,62.20
2022-10-14T08:10:21.604Z,59.14
2022-10-14T08:11:21.274Z,65.74
2022-10-14T08:12:21.941Z,58.65
2022-10-14T08:13:23.662Z,61.39
2022-10-14T08:14:21.950Z,72.35
2022-10-14T08:18:36.392Z,63.00
2022-10-14T08:18:42.166Z,70.90
2022-10-14T08:19:43.056Z,63.16
2022-10-14T08:20:42.701Z,57.69
2022-10-14T08:24:09.828Z,70.58
2022-10-14T08:24:14.903Z,64.78
2022-10-14T08:25:15.053Z,61.71
2022-10-14T08:26:15.276Z,59.46
2022-10-14T08:27:14.888Z,68.32
2022-10-14T08:28:15.294Z,58.01
2022-10-14T08:29:14.853Z,60.91
2022-10-14T08:30:14.897Z,60.59
2022-10-14T08:31:14.891Z,53.82
2022-10-14T08:32:15.003Z,54.30
2022-10-14T08:33:15.713Z,58.97
2022-10-14T08:34:14.912Z,61.87
2022-10-14T08:35:15.562Z,67.19
2022-10-14T08:36:15.490Z,62.04
2022-10-14T08:37:14.889Z,67.03
2022-10-14T08:38:16.965Z,68.32
2022-10-14T08:39:14.857Z,61.07
2022-10-14T08:40:15.962Z,59.14
2022-10-14T08:41:14.751Z,61.87
2022-10-14T08:42:15.137Z,66.06
2022-10-14T08:43:18.463Z,57.36
2022-10-14T08:44:14.657Z,68.48
2022-10-14T08:45:15.558Z,62.84
2022-10-14T08:46:15.315Z,60.42
2022-10-14T08:47:14.639Z,65.74
2022-10-14T08:48:14.721Z,63.97
2022-10-14T08:49:14.806Z,62.68
2022-10-14T08:50:15.921Z,61.55
2022-10-14T08:53:48.161Z,60.10
2022-10-14T08:53:53.348Z,56.40
2022-10-14T08:54:54.720Z,64.13
2022-10-14T08:55:54.312Z,65.58
2022-10-14T08:56:53.537Z,61.39
2022-10-14T08:57:54.054Z,60.10
2022-10-14T08:58:53.357Z,63.81
2022-10-14T08:59:53.359Z,57.36
2022-10-14T09:00:55.792Z,68.80
2022-10-14T09:01:54.069Z,68.64
2022-10-14T09:02:53.457Z,56.07
2022-10-14T09:03:53.494Z,67.51
2022-10-14T09:10:21.804Z,73.32
2022-10-14T09:10:28.251Z,61.23
2022-10-14T09:11:34.444Z,67.19
2022-10-14T09:12:26.966Z,58.97
2022-10-14T09:13:26.876Z,67.68
2022-10-14T09:14:26.886Z,64.29
2022-10-14T09:15:50.041Z,60.26
2022-10-14T09:16:27.261Z,60.10
2022-10-14T09:17:26.850Z,60.42
2022-10-14T09:18:26.934Z,59.94
2022-10-14T09:19:26.776Z,59.78
2022-10-14T09:20:27.115Z,62.52
2022-10-14T09:21:47.854Z,60.59
2022-10-14T09:22:27.099Z,59.62
2022-10-14T09:23:26.822Z,66.06
2022-10-14T09:24:26.806Z,57.69
2022-10-14T09:25:26.743Z,60.26
2022-10-14T09:26:26.726Z,65.42
2022-10-14T09:27:26.781Z,58.49
2022-10-14T09:28:26.694Z,65.58
2022-10-14T09:29:26.670Z,63.65
2022-10-14T09:30:26.697Z,64.45
2022-10-14T09:31:26.747Z,56.72
2022-10-14T09:32:26.697Z,58.01
2022-10-14T09:33:26.675Z,58.97
2022-10-14T09:34:26.715Z,65.74
2022-10-14T09:35:26.957Z,61.23
2022-10-14T09:36:26.588Z,68.32
2022-10-14T09:37:26.584Z,61.23
2022-10-14T09:38:26.575Z,62.68
2022-10-14T09:39:26.799Z,57.52
2022-10-14T09:40:26.980Z,70.25
2022-10-14T09:41:26.553Z,60.91
2022-10-14T09:42:26.514Z,63.16
2022-10-14T09:43:26.579Z,58.97
2022-10-14T09:44:26.542Z,62.68
2022-10-14T09:45:26.645Z,56.07
2022-10-14T09:46:26.496Z,60.59
2022-10-14T09:47:26.910Z,59.78
2022-10-14T09:48:26.525Z,60.75
2022-10-14T09:49:26.465Z,57.52
2022-10-14T09:50:26.452Z,59.78
2022-10-14T09:51:26.525Z,65.10
2022-10-14T09:52:26.437Z,59.30
2022-10-14T09:53:26.494Z,66.55
2022-10-14T09:54:26.376Z,59.46
2022-10-14T09:55:26.968Z,62.04
2022-10-14T09:56:26.414Z,67.51
2022-10-14T09:57:26.340Z,60.42
2022-10-14T09:58:26.372Z,70.25
2022-10-14T09:59:26.301Z,69.13
2022-10-14T10:00:26.344Z,71.87
2022-10-14T10:01:26.314Z,72.99
2022-10-14T10:02:26.297Z,70.74
2022-10-14T10:03:26.296Z,57.36
2022-10-14T10:04:26.338Z,70.42
2022-10-14T10:05:26.357Z,61.07
2022-10-14T10:06:26.436Z,65.90
2022-10-14T10:07:26.241Z,67.51
2022-10-14T10:08:26.250Z,66.06
2022-10-14T10:09:32.000Z,60.59
2022-10-14T10:11:36.118Z,60.42
2022-10-14T10:11:41.126Z,63.33
2022-10-14T10:12:41.237Z,61.87
2022-10-14T10:13:41.571Z,61.87
2022-10-14T10:14:41.223Z,68.16
2022-10-14T10:15:41.262Z,63.97
2022-10-14T10:16:41.277Z,68.00
2022-10-14T10:17:41.107Z,58.97
2022-10-14T10:18:41.302Z,64.61
2022-10-14T10:19:41.144Z,60.59
2022-10-14T10:20:41.170Z,61.87
2022-10-14T10:21:41.238Z,64.61
2022-10-14T10:22:41.136Z,60.91
2022-10-14T10:23:41.254Z,62.04
2022-10-14T10:24:41.168Z,61.87
2022-10-14T10:25:41.096Z,58.97
2022-10-14T10:26:41.163Z,65.42
2022-10-14T10:27:41.041Z,59.94
2022-10-14T10:28:41.021Z,59.94
2022-10-14T10:29:44.425Z,60.59
2022-10-14T10:30:45.002Z,60.91
2022-10-14T10:32:41.464Z,66.39
2022-10-14T10:34:31.309Z,61.07
2022-10-14T10:34:41.104Z,60.26
2022-10-14T10:35:40.909Z,59.62
2022-10-14T10:36:42.594Z,62.68
2022-10-14T10:38:37.567Z,72.19
2022-10-14T10:38:43.994Z,67.03
2022-10-14T10:40:47.930Z,69.77
2022-10-14T10:40:56.831Z,64.78
2022-10-14T10:41:54.445Z,65.74
2022-10-14T10:42:55.297Z,62.52
2022-10-14T10:43:53.392Z,58.65
2022-10-14T10:44:53.275Z,58.65
2022-10-14T10:45:52.923Z,63.16
2022-10-14T10:46:52.922Z,63.65
2022-10-14T10:47:52.880Z,75.89
2022-10-14T10:48:55.988Z,73.80
2022-10-14T10:49:53.181Z,75.57
2022-10-14T10:50:53.917Z,68.96
2022-10-14T10:51:52.889Z,69.93
2022-10-14T10:52:53.955Z,70.74
2022-10-14T10:53:53.141Z,73.48
2022-10-14T10:54:53.480Z,68.48
2022-10-14T10:55:53.326Z,68.80
2022-10-14T10:56:53.267Z,72.67
2022-10-14T10:57:53.472Z,66.71
2022-10-14T10:58:53.562Z,71.87
2022-10-14T11:00:31.763Z,58.97
2022-10-14T11:01:15.972Z,65.10
2022-10-14T11:01:52.836Z,62.20
2022-10-14T11:02:57.656Z,63.16
2022-10-14T11:03:52.832Z,64.61
2022-10-14T11:04:55.742Z,66.06
2022-10-14T11:05:54.925Z,75.73
2022-10-14T11:06:53.423Z,70.25
2022-10-14T11:07:52.943Z,71.87
2022-10-14T11:08:52.999Z,78.31
2022-10-14T11:09:52.920Z,61.07
2022-10-14T11:12:18.595Z,71.70
2022-10-14T11:12:24.349Z,69.45
2022-10-14T11:13:23.767Z,61.39
2022-10-14T11:14:23.804Z,59.14
2022-10-14T11:15:24.604Z,61.87
2022-10-14T11:16:26.675Z,61.39
2022-10-14T11:17:23.918Z,65.74
2022-10-14T11:18:23.739Z,57.36
2022-10-14T11:19:23.785Z,69.29
2022-10-14T11:20:23.702Z,60.91
2022-10-14T11:21:25.016Z,67.19
2022-10-14T11:22:24.006Z,65.74
2022-10-14T11:23:23.616Z,66.23
2022-10-14T11:24:24.124Z,66.23
2022-10-14T11:25:23.734Z,62.20
2022-10-14T11:26:24.576Z,63.65
2022-10-14T11:27:28.701Z,62.36
2022-10-14T11:28:23.868Z,69.13
2022-10-14T11:29:23.519Z,70.09
2022-10-14T11:30:23.614Z,62.52
2022-10-14T11:31:23.593Z,60.91
2022-10-14T11:32:23.591Z,60.75
2022-10-14T11:33:23.409Z,64.78
2022-10-14T11:34:23.411Z,66.55
2022-10-14T11:35:23.633Z,61.23
2022-10-14T11:36:23.611Z,70.90
2022-10-14T11:37:24.025Z,72.03
2022-10-14T11:38:23.482Z,62.84
2022-10-14T11:39:23.324Z,67.35
2022-10-14T11:40:23.934Z,65.26
2022-10-14T11:41:23.528Z,67.19
2022-10-14T11:42:23.793Z,63.49
2022-10-14T11:43:24.017Z,66.06
2022-10-14T11:44:25.273Z,71.38
2022-10-14T11:45:23.534Z,74.77
2022-10-14T11:46:25.311Z,60.26
2022-10-14T11:47:25.886Z,68.00
2022-10-14T11:48:30.857Z,67.68
2022-10-14T11:50:26.144Z,62.52
2022-10-14T11:50:32.845Z,66.87
2022-10-14T11:51:34.889Z,72.19
2022-10-14T11:52:31.996Z,65.42
2022-10-14T11:53:33.522Z,62.84
2022-10-14T11:54:37.005Z,60.91
2022-10-14T11:55:31.503Z,63.49
2022-10-14T11:56:31.510Z,71.22
2022-10-14T11:57:31.591Z,61.71
2022-10-14T11:58:31.583Z,66.39
2022-10-14T11:59:31.559Z,60.10
2022-10-14T12:00:32.138Z,66.39
2022-10-14T12:01:34.319Z,63.49
2022-10-14T12:02:31.634Z,68.00
2022-10-14T12:03:33.621Z,74.77
2022-10-14T12:04:33.864Z,65.42
2022-10-14T12:05:32.195Z,67.35
2022-10-14T12:06:32.843Z,68.32
2022-10-14T12:07:31.465Z,63.81
2022-10-14T12:08:33.130Z,67.35
2022-10-14T12:09:31.542Z,64.13
2022-10-14T12:10:31.434Z,71.06
2022-10-14T12:11:31.257Z,60.10
2022-10-14T12:12:31.649Z,62.20
2022-10-14T12:13:31.423Z,69.45
2022-10-14T12:14:31.261Z,71.38
2022-10-14T12:16:31.218Z,62.36
2022-10-14T12:17:31.293Z,61.87
2022-10-14T12:18:31.384Z,63.00
2022-10-14T12:19:31.400Z,60.75
2022-10-14T12:20:32.915Z,68.32
2022-10-14T12:21:31.461Z,96.68
2022-10-14T12:22:31.651Z,76.05
2022-10-14T12:23:31.692Z,67.51
2022-10-14T12:24:31.557Z,69.61
2022-10-14T12:25:50.066Z,65.58
2022-10-14T12:29:06.961Z,68.64
2022-10-14T12:29:17.933Z,68.64
2022-10-14T12:30:15.363Z,66.55
2022-10-14T12:31:15.335Z,70.74
2022-10-14T12:32:16.185Z,70.58
2022-10-14T12:33:16.734Z,60.59
2022-10-14T12:34:15.614Z,65.90
2022-10-14T12:35:21.051Z,75.89
2022-10-14T12:36:16.507Z,60.26
2022-10-14T12:37:15.905Z,64.61
2022-10-14T12:38:14.943Z,63.49
2022-10-14T12:39:15.040Z,67.84
2022-10-14T12:40:15.028Z,65.74
2022-10-14T12:41:15.148Z,68.32
2022-10-14T12:42:14.932Z,63.81
2022-10-14T12:43:15.088Z,64.94
2022-10-14T12:44:14.981Z,67.19
2022-10-14T12:45:14.939Z,70.90
2022-10-14T12:46:14.963Z,61.87
2022-10-14T12:47:14.928Z,63.16
2022-10-14T12:48:14.888Z,63.97
2022-10-14T12:49:14.907Z,68.96
2022-10-14T12:50:14.846Z,69.61
2022-10-14T12:51:14.869Z,64.94
2022-10-14T12:52:14.817Z,72.03
2022-10-14T12:53:14.943Z,69.13
2022-10-14T12:54:15.160Z,63.65
2022-10-14T12:55:15.285Z,69.93
2022-10-14T12:56:14.860Z,68.48
2022-10-14T12:57:14.888Z,65.74
2022-10-14T12:58:14.806Z,63.16
2022-10-14T13:00:15.104Z,65.74
2022-10-14T13:01:14.864Z,68.48
2022-10-14T13:02:15.001Z,63.16
2022-10-14T13:03:14.787Z,63.49
2022-10-14T13:04:19.033Z,64.61
2022-10-14T13:05:15.257Z,66.39
2022-10-14T13:06:15.485Z,61.39
2022-10-14T13:07:28.432Z,66.39
2022-10-14T13:08:15.117Z,68.32